sensor_id;sensor_type;location;lat;lon;timestamp;P1;durP1;ratioP1;P2;durP2;ratioP2
39050;SDS011;24805;55.852;37.644;2022-08-07T00:01:00;10.93;;;7.28;;
39050;SDS011;24805;55.852;37.644;2022-08-07T00:06:22;10.60;;;6.40;;
39050;SDS011;24805;55.852;37.644;2022-08-07T00:11:33;15.75;;;7.20;;
39050;SDS011;24805;55.852;37.644;2022-08-07T00:16:48;11.05;;;6.55;;
39050;SDS011;24805;55.852;37.644;2022-08-07T00:21:50;12.13;;;7.13;;
39050;SDS011;24805;55.852;37.644;2022-08-07T00:27:02;12.20;;;6.68;;
39050;SDS011;24805;55.852;37.644;2022-08-07T00:32:09;11.23;;;6.78;;
39050;SDS011;24805;55.852;37.644;2022-08-07T00:37:15;9.20;;;6.35;;
39050;SDS011;24805;55.852;37.644;2022-08-07T00:42:18;12.63;;;6.95;;
39050;SDS011;24805;55.852;37.644;2022-08-07T00:52:52;12.57;;;6.72;;
39050;SDS011;24805;55.852;37.644;2022-08-07T00:57:54;14.38;;;7.25;;
39050;SDS011;24805;55.852;37.644;2022-08-07T01:02:57;12.68;;;7.13;;
39050;SDS011;24805;55.852;37.644;2022-08-07T01:07:59;9.77;;;6.25;;
39050;SDS011;24805;55.852;37.644;2022-08-07T01:13:01;13.20;;;6.68;;
39050;SDS011;24805;55.852;37.644;2022-08-07T01:18:05;6.75;;;5.10;;
39050;SDS011;24805;55.852;37.644;2022-08-07T01:23:11;10.38;;;6.55;;
39050;SDS011;24805;55.852;37.644;2022-08-07T01:28:16;14.30;;;7.78;;
39050;SDS011;24805;55.852;37.644;2022-08-07T01:33:21;10.75;;;6.82;;
39050;SDS011;24805;55.852;37.644;2022-08-07T01:38:31;10.95;;;7.32;;
39050;SDS011;24805;55.852;37.644;2022-08-07T01:43:44;15.13;;;8.52;;
39050;SDS011;24805;55.852;37.644;2022-08-07T01:48:48;16.70;;;7.55;;
39050;SDS011;24805;55.852;37.644;2022-08-07T01:53:56;17.10;;;8.18;;
39050;SDS011;24805;55.852;37.644;2022-08-07T01:59:26;17.63;;;8.48;;
39050;SDS011;24805;55.852;37.644;2022-08-07T02:04:46;21.40;;;9.00;;
39050;SDS011;24805;55.852;37.644;2022-08-07T02:10:04;23.52;;;9.57;;
39050;SDS011;24805;55.852;37.644;2022-08-07T02:15:17;15.10;;;10.07;;
39050;SDS011;24805;55.852;37.644;2022-08-07T02:20:27;21.33;;;10.98;;
39050;SDS011;24805;55.852;37.644;2022-08-07T02:25:34;21.50;;;10.48;;
39050;SDS011;24805;55.852;37.644;2022-08-07T02:30:58;19.73;;;10.93;;
39050;SDS011;24805;55.852;37.644;2022-08-07T02:36:23;22.73;;;11.20;;
39050;SDS011;24805;55.852;37.644;2022-08-07T02:41:38;25.00;;;11.93;;
39050;SDS011;24805;55.852;37.644;2022-08-07T02:46:52;20.85;;;12.18;;
39050;SDS011;24805;55.852;37.644;2022-08-07T02:51:58;23.38;;;12.07;;
39050;SDS011;24805;55.852;37.644;2022-08-07T02:57:02;18.42;;;12.57;;
39050;SDS011;24805;55.852;37.644;2022-08-07T03:02:07;24.70;;;12.55;;
39050;SDS011;24805;55.852;37.644;2022-08-07T03:07:12;20.38;;;11.35;;
39050;SDS011;24805;55.852;37.644;2022-08-07T03:12:19;26.25;;;12.82;;
39050;SDS011;24805;55.852;37.644;2022-08-07T03:17:34;19.75;;;11.43;;
39050;SDS011;24805;55.852;37.644;2022-08-07T03:22:57;18.95;;;11.65;;
39050;SDS011;24805;55.852;37.644;2022-08-07T03:28:00;22.60;;;12.15;;
39050;SDS011;24805;55.852;37.644;2022-08-07T03:33:24;15.57;;;11.10;;
39050;SDS011;24805;55.852;37.644;2022-08-07T03:38:41;16.42;;;11.43;;
39050;SDS011;24805;55.852;37.644;2022-08-07T03:43:45;19.67;;;10.77;;
39050;SDS011;24805;55.852;37.644;2022-08-07T03:49:02;19.88;;;10.30;;
39050;SDS011;24805;55.852;37.644;2022-08-07T03:54:11;17.20;;;10.40;;
39050;SDS011;24805;55.852;37.644;2022-08-07T03:59:35;13.45;;;9.32;;
39050;SDS011;24805;55.852;37.644;2022-08-07T04:04:48;14.65;;;8.30;;
39050;SDS011;24805;55.852;37.644;2022-08-07T04:09:51;17.30;;;9.52;;
39050;SDS011;24805;55.852;37.644;2022-08-07T04:14:57;14.52;;;8.45;;
39050;SDS011;24805;55.852;37.644;2022-08-07T04:20:08;10.95;;;7.97;;
39050;SDS011;24805;55.852;37.644;2022-08-07T04:25:13;14.77;;;8.57;;
39050;SDS011;24805;55.852;37.644;2022-08-07T04:30:18;14.90;;;8.07;;
39050;SDS011;24805;55.852;37.644;2022-08-07T04:35:49;10.65;;;7.50;;
39050;SDS011;24805;55.852;37.644;2022-08-07T04:40:57;14.55;;;8.05;;
39050;SDS011;24805;55.852;37.644;2022-08-07T04:57:36;15.40;;;6.40;;
39050;SDS011;24805;55.852;37.644;2022-08-07T05:14:10;10.55;;;6.13;;
39050;SDS011;24805;55.852;37.644;2022-08-07T05:19:41;10.68;;;5.90;;
39050;SDS011;24805;55.852;37.644;2022-08-07T05:24:48;16.40;;;6.50;;
39050;SDS011;24805;55.852;37.644;2022-08-07T05:29:56;11.70;;;5.45;;
39050;SDS011;24805;55.852;37.644;2022-08-07T05:35:01;8.93;;;4.55;;
39050;SDS011;24805;55.852;37.644;2022-08-07T05:40:05;9.45;;;4.40;;
39050;SDS011;24805;55.852;37.644;2022-08-07T05:45:21;8.88;;;4.05;;
39050;SDS011;24805;55.852;37.644;2022-08-07T05:50:46;7.20;;;3.90;;
39050;SDS011;24805;55.852;37.644;2022-08-07T05:55:52;5.65;;;3.50;;
39050;SDS011;24805;55.852;37.644;2022-08-07T06:01:06;7.88;;;3.20;;
39050;SDS011;24805;55.852;37.644;2022-08-07T06:06:13;7.13;;;3.53;;
39050;SDS011;24805;55.852;37.644;2022-08-07T06:11:21;7.47;;;3.33;;
39050;SDS011;24805;55.852;37.644;2022-08-07T06:16:26;6.38;;;3.03;;
39050;SDS011;24805;55.852;37.644;2022-08-07T06:21:33;5.45;;;2.95;;
39050;SDS011;24805;55.852;37.644;2022-08-07T06:26:57;9.73;;;2.85;;
39050;SDS011;24805;55.852;37.644;2022-08-07T06:32:04;5.72;;;2.35;;
39050;SDS011;24805;55.852;37.644;2022-08-07T06:37:07;4.43;;;2.67;;
39050;SDS011;24805;55.852;37.644;2022-08-07T06:47:43;5.88;;;2.70;;
39050;SDS011;24805;55.852;37.644;2022-08-07T06:53:02;5.70;;;2.92;;
39050;SDS011;24805;55.852;37.644;2022-08-07T06:58:08;3.97;;;2.40;;
39050;SDS011;24805;55.852;37.644;2022-08-07T07:03:22;7.78;;;3.38;;
39050;SDS011;24805;55.852;37.644;2022-08-07T07:08:44;5.97;;;2.67;;
39050;SDS011;24805;55.852;37.644;2022-08-07T07:13:48;10.35;;;2.78;;
39050;SDS011;24805;55.852;37.644;2022-08-07T07:19:02;5.85;;;2.78;;
39050;SDS011;24805;55.852;37.644;2022-08-07T07:24:26;10.07;;;2.88;;
39050;SDS011;24805;55.852;37.644;2022-08-07T07:29:33;5.93;;;3.05;;
39050;SDS011;24805;55.852;37.644;2022-08-07T07:34:59;11.88;;;3.35;;
39050;SDS011;24805;55.852;37.644;2022-08-07T07:40:05;11.02;;;3.60;;
39050;SDS011;24805;55.852;37.644;2022-08-07T07:45:15;12.13;;;3.13;;
39050;SDS011;24805;55.852;37.644;2022-08-07T07:50:23;6.63;;;1.52;;
39050;SDS011;24805;55.852;37.644;2022-08-07T07:55:38;3.08;;;1.60;;
39050;SDS011;24805;55.852;37.644;2022-08-07T08:00:56;5.78;;;2.20;;
39050;SDS011;24805;55.852;37.644;2022-08-07T08:05:59;7.95;;;2.00;;
39050;SDS011;24805;55.852;37.644;2022-08-07T08:11:03;3.40;;;1.80;;
39050;SDS011;24805;55.852;37.644;2022-08-07T08:16:11;3.30;;;1.23;;
39050;SDS011;24805;55.852;37.644;2022-08-07T08:21:18;7.28;;;1.95;;
39050;SDS011;24805;55.852;37.644;2022-08-07T08:27:00;37.10;;;3.90;;
39050;SDS011;24805;55.852;37.644;2022-08-07T08:32:10;11.30;;;1.85;;
39050;SDS011;24805;55.852;37.644;2022-08-07T08:37:18;5.85;;;1.60;;
39050;SDS011;24805;55.852;37.644;2022-08-07T08:42:45;8.50;;;1.63;;
39050;SDS011;24805;55.852;37.644;2022-08-07T08:48:14;7.03;;;1.65;;
39050;SDS011;24805;55.852;37.644;2022-08-07T08:53:46;6.18;;;2.33;;
39050;SDS011;24805;55.852;37.644;2022-08-07T08:58:58;6.82;;;2.38;;
39050;SDS011;24805;55.852;37.644;2022-08-07T09:04:20;8.10;;;2.28;;
39050;SDS011;24805;55.852;37.644;2022-08-07T09:42:19;5.25;;;2.40;;
39050;SDS011;24805;55.852;37.644;2022-08-07T09:48:03;5.28;;;1.95;;
39050;SDS011;24805;55.852;37.644;2022-08-07T09:53:51;4.45;;;1.85;;
39050;SDS011;24805;55.852;37.644;2022-08-07T10:15:45;7.38;;;2.22;;
39050;SDS011;24805;55.852;37.644;2022-08-07T10:43:54;5.28;;;1.40;;
39050;SDS011;24805;55.852;37.644;2022-08-07T10:49:19;5.53;;;1.50;;
39050;SDS011;24805;55.852;37.644;2022-08-07T11:00:18;3.85;;;1.77;;
39050;SDS011;24805;55.852;37.644;2022-08-07T11:05:57;3.70;;;1.52;;
39050;SDS011;24805;55.852;37.644;2022-08-07T11:11:32;4.47;;;1.50;;
39050;SDS011;24805;55.852;37.644;2022-08-07T11:17:00;4.35;;;1.67;;
39050;SDS011;24805;55.852;37.644;2022-08-07T11:22:11;8.23;;;2.42;;
39050;SDS011;24805;55.852;37.644;2022-08-07T11:27:49;8.05;;;2.70;;
39050;SDS011;24805;55.852;37.644;2022-08-07T11:33:07;9.60;;;2.72;;
39050;SDS011;24805;55.852;37.644;2022-08-07T11:55:29;4.70;;;3.20;;
39050;SDS011;24805;55.852;37.644;2022-08-07T12:01:18;5.63;;;3.28;;
39050;SDS011;24805;55.852;37.644;2022-08-07T12:06:52;5.82;;;3.70;;
39050;SDS011;24805;55.852;37.644;2022-08-07T12:17:36;5.75;;;3.13;;
39050;SDS011;24805;55.852;37.644;2022-08-07T12:28:17;5.05;;;2.90;;
39050;SDS011;24805;55.852;37.644;2022-08-07T12:33:45;8.07;;;3.63;;
39050;SDS011;24805;55.852;37.644;2022-08-07T12:39:03;5.50;;;3.03;;
39050;SDS011;24805;55.852;37.644;2022-08-07T12:44:27;5.68;;;2.70;;
39050;SDS011;24805;55.852;37.644;2022-08-07T12:55:35;10.43;;;2.40;;
39050;SDS011;24805;55.852;37.644;2022-08-07T13:06:17;12.15;;;2.90;;
39050;SDS011;24805;55.852;37.644;2022-08-07T13:12:06;4.25;;;1.92;;
39050;SDS011;24805;55.852;37.644;2022-08-07T13:22:59;2.13;;;1.85;;
39050;SDS011;24805;55.852;37.644;2022-08-07T13:28:29;3.75;;;1.67;;
39050;SDS011;24805;55.852;37.644;2022-08-07T13:33:46;2.67;;;1.20;;
39050;SDS011;24805;55.852;37.644;2022-08-07T13:39:25;2.78;;;1.20;;
39050;SDS011;24805;55.852;37.644;2022-08-07T13:44:53;2.65;;;1.15;;
39050;SDS011;24805;55.852;37.644;2022-08-07T13:50:21;1.90;;;1.10;;
39050;SDS011;24805;55.852;37.644;2022-08-07T13:55:45;2.08;;;1.42;;
39050;SDS011;24805;55.852;37.644;2022-08-07T14:00:58;3.22;;;1.20;;
39050;SDS011;24805;55.852;37.644;2022-08-07T14:06:10;2.13;;;1.20;;
39050;SDS011;24805;55.852;37.644;2022-08-07T14:11:14;2.70;;;1.30;;
39050;SDS011;24805;55.852;37.644;2022-08-07T14:16:28;3.45;;;1.67;;
39050;SDS011;24805;55.852;37.644;2022-08-07T14:21:38;1.80;;;1.25;;
39050;SDS011;24805;55.852;37.644;2022-08-07T14:27:05;1.40;;;1.13;;
39050;SDS011;24805;55.852;37.644;2022-08-07T14:32:35;2.45;;;1.23;;
39050;SDS011;24805;55.852;37.644;2022-08-07T14:37:44;1.85;;;1.40;;
39050;SDS011;24805;55.852;37.644;2022-08-07T14:43:11;1.95;;;1.38;;
39050;SDS011;24805;55.852;37.644;2022-08-07T14:48:37;3.45;;;1.35;;
39050;SDS011;24805;55.852;37.644;2022-08-07T14:53:43;1.90;;;1.38;;
39050;SDS011;24805;55.852;37.644;2022-08-07T14:59:08;2.33;;;1.55;;
39050;SDS011;24805;55.852;37.644;2022-08-07T15:04:32;1.80;;;1.60;;
39050;SDS011;24805;55.852;37.644;2022-08-07T15:20:23;4.00;;;1.40;;
39050;SDS011;24805;55.852;37.644;2022-08-07T15:25:50;4.68;;;2.05;;
39050;SDS011;24805;55.852;37.644;2022-08-07T15:30:59;1.88;;;1.40;;
39050;SDS011;24805;55.852;37.644;2022-08-07T15:36:25;1.60;;;1.13;;
39050;SDS011;24805;55.852;37.644;2022-08-07T15:41:59;3.42;;;3.10;;
39050;SDS011;24805;55.852;37.644;2022-08-07T15:47:23;3.72;;;2.50;;
39050;SDS011;24805;55.852;37.644;2022-08-07T15:52:55;4.72;;;2.03;;
39050;SDS011;24805;55.852;37.644;2022-08-07T15:58:05;2.72;;;2.40;;
39050;SDS011;24805;55.852;37.644;2022-08-07T16:03:20;3.20;;;2.15;;
39050;SDS011;24805;55.852;37.644;2022-08-07T16:08:46;5.72;;;2.75;;
39050;SDS011;24805;55.852;37.644;2022-08-07T17:05:43;5.22;;;2.28;;
39050;SDS011;24805;55.852;37.644;2022-08-07T17:11:13;4.55;;;2.33;;
39050;SDS011;24805;55.852;37.644;2022-08-07T17:16:58;3.47;;;1.98;;
39050;SDS011;24805;55.852;37.644;2022-08-07T17:22:07;4.93;;;1.92;;
39050;SDS011;24805;55.852;37.644;2022-08-07T17:27:16;2.95;;;2.30;;
39050;SDS011;24805;55.852;37.644;2022-08-07T17:32:42;3.17;;;1.85;;
39050;SDS011;24805;55.852;37.644;2022-08-07T17:38:10;3.43;;;2.10;;
39050;SDS011;24805;55.852;37.644;2022-08-07T17:43:37;2.90;;;2.30;;
39050;SDS011;24805;55.852;37.644;2022-08-07T17:49:09;3.78;;;2.33;;
39050;SDS011;24805;55.852;37.644;2022-08-07T17:59:59;3.53;;;2.43;;
39050;SDS011;24805;55.852;37.644;2022-08-07T18:10:30;3.97;;;2.30;;
39050;SDS011;24805;55.852;37.644;2022-08-07T18:21:20;4.47;;;2.60;;
39050;SDS011;24805;55.852;37.644;2022-08-07T18:26:53;2.55;;;2.15;;
39050;SDS011;24805;55.852;37.644;2022-08-07T19:01:17;6.35;;;2.88;;
39050;SDS011;24805;55.852;37.644;2022-08-07T19:06:51;2.78;;;2.53;;
39050;SDS011;24805;55.852;37.644;2022-08-07T19:17:30;4.07;;;2.85;;
39050;SDS011;24805;55.852;37.644;2022-08-07T19:23:10;7.00;;;2.50;;
39050;SDS011;24805;55.852;37.644;2022-08-07T19:28:25;8.98;;;2.72;;
39050;SDS011;24805;55.852;37.644;2022-08-07T19:33:48;5.28;;;3.50;;
39050;SDS011;24805;55.852;37.644;2022-08-07T19:38:59;4.32;;;3.28;;
39050;SDS011;24805;55.852;37.644;2022-08-07T19:44:10;6.87;;;3.70;;
39050;SDS011;24805;55.852;37.644;2022-08-07T19:49:22;6.68;;;3.22;;
39050;SDS011;24805;55.852;37.644;2022-08-07T19:54:45;5.85;;;4.15;;
39050;SDS011;24805;55.852;37.644;2022-08-07T19:59:58;5.25;;;4.10;;
39050;SDS011;24805;55.852;37.644;2022-08-07T20:05:33;4.85;;;3.75;;
39050;SDS011;24805;55.852;37.644;2022-08-07T20:10:58;6.10;;;3.47;;
39050;SDS011;24805;55.852;37.644;2022-08-07T20:16:11;3.10;;;2.75;;
39050;SDS011;24805;55.852;37.644;2022-08-07T20:21:39;5.93;;;3.45;;
39050;SDS011;24805;55.852;37.644;2022-08-07T20:26:48;4.60;;;3.42;;
39050;SDS011;24805;55.852;37.644;2022-08-07T20:31:56;4.57;;;3.70;;
39050;SDS011;24805;55.852;37.644;2022-08-07T20:37:02;4.63;;;3.33;;
39050;SDS011;24805;55.852;37.644;2022-08-07T20:42:08;4.65;;;3.67;;
39050;SDS011;24805;55.852;37.644;2022-08-07T20:47:14;4.22;;;3.63;;
39050;SDS011;24805;55.852;37.644;2022-08-07T20:52:25;11.15;;;5.57;;
39050;SDS011;24805;55.852;37.644;2022-08-07T20:57:49;6.85;;;5.03;;
39050;SDS011;24805;55.852;37.644;2022-08-07T21:03:13;9.27;;;7.37;;
39050;SDS011;24805;55.852;37.644;2022-08-07T21:08:28;10.27;;;7.03;;
39050;SDS011;24805;55.852;37.644;2022-08-07T21:13:39;12.27;;;7.82;;
39050;SDS011;24805;55.852;37.644;2022-08-07T21:19:08;11.40;;;8.70;;
39050;SDS011;24805;55.852;37.644;2022-08-07T21:35:05;11.55;;;8.80;;
39050;SDS011;24805;55.852;37.644;2022-08-07T21:40:30;9.32;;;8.43;;
39050;SDS011;24805;55.852;37.644;2022-08-07T21:45:54;12.02;;;9.38;;
39050;SDS011;24805;55.852;37.644;2022-08-07T22:07:46;12.60;;;8.90;;
39050;SDS011;24805;55.852;37.644;2022-08-07T22:13:04;10.20;;;8.68;;
39050;SDS011;24805;55.852;37.644;2022-08-07T22:18:11;9.18;;;8.10;;
39050;SDS011;24805;55.852;37.644;2022-08-07T22:23:23;9.50;;;8.15;;
39050;SDS011;24805;55.852;37.644;2022-08-07T22:28:50;9.25;;;7.82;;
39050;SDS011;24805;55.852;37.644;2022-08-07T22:34:05;11.77;;;8.52;;
39050;SDS011;24805;55.852;37.644;2022-08-07T22:44:55;10.65;;;8.43;;
39050;SDS011;24805;55.852;37.644;2022-08-07T22:56:02;12.02;;;8.88;;
39050;SDS011;24805;55.852;37.644;2022-08-07T23:07:34;11.67;;;8.57;;
39050;SDS011;24805;55.852;37.644;2022-08-07T23:18:57;10.35;;;8.98;;
39050;SDS011;24805;55.852;37.644;2022-08-07T23:24:49;9.95;;;8.63;;
39050;SDS011;24805;55.852;37.644;2022-08-07T23:30:01;9.88;;;8.85;;
39050;SDS011;24805;55.852;37.644;2022-08-07T23:52:29;10.18;;;9.18;;
39050;SDS011;24805;55.852;37.644;2022-08-07T23:58:05;10.00;;;8.60;;
